Aviation Digital Data Service (ADDS)

Output produced by METARs form (0016 UTC 24 May 2022)
found at http://www.aviationweather.gov/metar/data/
 
UTSB 240000Z 09004KT CAVOK 15/10 Q1005 R01/CLRD70 NOSIG
TAF UTSB 232300Z 2400/2424 VRB03KT 7000 NSC 
     TEMPO 2400/2406 10012KT 
     TEMPO 2406/2414 16014KT SCT033
       
UTSK 240000Z 07006KT CAVOK 15/12 Q1005 R16/CLRD70
TAF UTSK 240000Z 2401/2410 06006KT CAVOK 
     TEMPO 2405/2410 22006KT
       
UTSS 240000Z 14006KT 9999 NSC 13/10 Q1007 R09/70D NOSIG
TAF UTSS 232300Z 2400/2424 12010KT 9999 NSC 
     TEMPO 2400/2412 07012G22KT
       
UTST 240000Z 02008KT 7000 NSC 16/09 Q1006 R25/CLRD70 NOSIG
TAF UTST 232300Z 2400/2424 VRB06KT 6000 NSC 
     TEMPO 2400/2411 03012G22KT 3000 HZ SCT060CB SCT100
       
UTNU 240000Z 11008KT CAVOK 17/06 Q1002 R13/CLRD70 NOSIG
TAF UTNU 232301Z 2400/2424 10010G20KT 7000 NSC 
     TEMPO 2400/2406 13018G28KT BKN100
       
UTTT 240000Z 01004G14KT 340V050 7000 NSC 16/10 Q1008 R08L/CLRD70 NOSIG
TAF UTTT 232300Z 2400/2424 06008KT CAVOK 
     TEMPO 2400/2404 4000 BR FU 
     TEMPO 2406/2416 32012KT SCT050